sensor_id;sensor_type;location;lat;lon;timestamp;temperature;humidity
1680;DHT22;838;51.794;12.258;2022-12-18T00:00:32;-3.60;78.60
1680;DHT22;838;51.794;12.258;2022-12-18T00:02:58;-3.50;79.00
1680;DHT22;838;51.794;12.258;2022-12-18T00:05:23;-3.50;78.70
1680;DHT22;838;51.794;12.258;2022-12-18T00:07:49;-3.50;79.20
1680;DHT22;838;51.794;12.258;2022-12-18T00:10:18;-3.60;78.80
1680;DHT22;838;51.794;12.258;2022-12-18T00:12:43;-3.50;79.90
1680;DHT22;838;51.794;12.258;2022-12-18T00:15:09;-3.50;78.30
1680;DHT22;838;51.794;12.258;2022-12-18T00:17:35;-3.70;77.60
1680;DHT22;838;51.794;12.258;2022-12-18T00:20:00;-3.80;78.80
1680;DHT22;838;51.794;12.258;2022-12-18T00:22:26;-3.90;80.30
1680;DHT22;838;51.794;12.258;2022-12-18T00:24:52;-3.80;81.40
1680;DHT22;838;51.794;12.258;2022-12-18T00:27:17;-3.90;81.50
1680;DHT22;838;51.794;12.258;2022-12-18T00:29:44;-3.80;82.40
1680;DHT22;838;51.794;12.258;2022-12-18T00:32:10;-3.60;82.40
1680;DHT22;838;51.794;12.258;2022-12-18T00:34:35;-3.70;80.40
1680;DHT22;838;51.794;12.258;2022-12-18T00:37:01;-3.70;81.00
1680;DHT22;838;51.794;12.258;2022-12-18T00:39:27;-3.60;81.40
1680;DHT22;838;51.794;12.258;2022-12-18T00:41:52;-3.60;79.50
1680;DHT22;838;51.794;12.258;2022-12-18T00:44:36;-3.50;78.80
1680;DHT22;838;51.794;12.258;2022-12-18T00:47:02;-3.70;78.10
1680;DHT22;838;51.794;12.258;2022-12-18T00:49:28;-3.90;78.50
1680;DHT22;838;51.794;12.258;2022-12-18T00:51:54;-3.80;78.90
1680;DHT22;838;51.794;12.258;2022-12-18T00:54:20;-4.00;78.80
1680;DHT22;838;51.794;12.258;2022-12-18T00:56:46;-4.00;79.50
1680;DHT22;838;51.794;12.258;2022-12-18T00:59:11;-4.10;80.40
1680;DHT22;838;51.794;12.258;2022-12-18T01:01:37;-4.20;81.30
1680;DHT22;838;51.794;12.258;2022-12-18T01:04:03;-4.20;82.20
1680;DHT22;838;51.794;12.258;2022-12-18T01:06:29;-4.30;82.80
1680;DHT22;838;51.794;12.258;2022-12-18T01:08:55;-4.30;83.10
1680;DHT22;838;51.794;12.258;2022-12-18T01:11:21;-4.30;82.50
1680;DHT22;838;51.794;12.258;2022-12-18T01:13:47;-4.30;83.70
1680;DHT22;838;51.794;12.258;2022-12-18T01:16:14;-4.40;84.40
1680;DHT22;838;51.794;12.258;2022-12-18T01:18:40;-4.50;84.80
1680;DHT22;838;51.794;12.258;2022-12-18T01:21:11;-4.40;85.40
1680;DHT22;838;51.794;12.258;2022-12-18T01:23:37;-4.20;86.00
1680;DHT22;838;51.794;12.258;2022-12-18T01:26:13;-4.20;83.70
1680;DHT22;838;51.794;12.258;2022-12-18T01:28:40;-4.20;83.90
1680;DHT22;838;51.794;12.258;2022-12-18T01:31:17;-4.10;83.50
1680;DHT22;838;51.794;12.258;2022-12-18T01:33:44;-4.20;82.70
1680;DHT22;838;51.794;12.258;2022-12-18T01:36:16;-4.30;81.60
1680;DHT22;838;51.794;12.258;2022-12-18T01:38:42;-4.20;81.90
1680;DHT22;838;51.794;12.258;2022-12-18T01:41:09;-4.20;81.70
1680;DHT22;838;51.794;12.258;2022-12-18T01:43:55;-4.30;80.90
1680;DHT22;838;51.794;12.258;2022-12-18T01:46:25;-4.30;80.60
1680;DHT22;838;51.794;12.258;2022-12-18T01:48:57;-4.30;80.60
1680;DHT22;838;51.794;12.258;2022-12-18T01:51:26;-4.40;80.00
1680;DHT22;838;51.794;12.258;2022-12-18T01:53:52;-4.60;80.80
1680;DHT22;838;51.794;12.258;2022-12-18T01:56:19;-4.60;82.70
1680;DHT22;838;51.794;12.258;2022-12-18T01:59:02;-4.50;83.20
1680;DHT22;838;51.794;12.258;2022-12-18T02:01:29;-4.40;82.90
1680;DHT22;838;51.794;12.258;2022-12-18T02:03:56;-4.40;81.60
1680;DHT22;838;51.794;12.258;2022-12-18T02:06:29;-4.40;82.60
1680;DHT22;838;51.794;12.258;2022-12-18T02:09:13;-4.30;82.20
1680;DHT22;838;51.794;12.258;2022-12-18T02:14:40;-4.30;81.20
1680;DHT22;838;51.794;12.258;2022-12-18T02:17:21;-4.30;79.70
1680;DHT22;838;51.794;12.258;2022-12-18T02:20:12;-4.40;79.20
1680;DHT22;838;51.794;12.258;2022-12-18T02:27:44;-4.30;79.30
1680;DHT22;838;51.794;12.258;2022-12-18T02:30:12;-4.10;76.60
1680;DHT22;838;51.794;12.258;2022-12-18T02:32:40;-4.40;76.70
1680;DHT22;838;51.794;12.258;2022-12-18T02:35:13;-4.50;77.30
1680;DHT22;838;51.794;12.258;2022-12-18T02:37:39;-4.40;77.90
1680;DHT22;838;51.794;12.258;2022-12-18T02:40:06;-4.40;77.80
1680;DHT22;838;51.794;12.258;2022-12-18T02:42:32;-4.50;77.10
1680;DHT22;838;51.794;12.258;2022-12-18T02:44:58;-4.70;78.10
1680;DHT22;838;51.794;12.258;2022-12-18T02:47:30;-4.70;79.20
1680;DHT22;838;51.794;12.258;2022-12-18T02:52:58;-4.80;80.00
1680;DHT22;838;51.794;12.258;2022-12-18T02:55:34;-4.90;81.80
1680;DHT22;838;51.794;12.258;2022-12-18T03:03:59;-4.90;82.60
1680;DHT22;838;51.794;12.258;2022-12-18T03:06:32;-4.90;83.40
1680;DHT22;838;51.794;12.258;2022-12-18T03:09:07;-4.90;84.00
1680;DHT22;838;51.794;12.258;2022-12-18T03:11:36;-5.00;83.20
1680;DHT22;838;51.794;12.258;2022-12-18T03:14:23;-4.90;84.10
1680;DHT22;838;51.794;12.258;2022-12-18T03:16:53;-4.90;84.50
1680;DHT22;838;51.794;12.258;2022-12-18T03:19:23;-4.70;84.50
1680;DHT22;838;51.794;12.258;2022-12-18T03:21:54;-4.70;83.40
1680;DHT22;838;51.794;12.258;2022-12-18T03:24:21;-4.60;83.00
1680;DHT22;838;51.794;12.258;2022-12-18T03:26:53;-4.40;82.10
1680;DHT22;838;51.794;12.258;2022-12-18T03:29:43;-4.50;81.10
1680;DHT22;838;51.794;12.258;2022-12-18T03:32:38;-4.50;78.50
1680;DHT22;838;51.794;12.258;2022-12-18T03:35:05;-4.70;78.10
1680;DHT22;838;51.794;12.258;2022-12-18T03:37:31;-4.80;77.30
1680;DHT22;838;51.794;12.258;2022-12-18T03:39:57;-4.90;78.00
1680;DHT22;838;51.794;12.258;2022-12-18T03:42:32;-5.00;78.50
1680;DHT22;838;51.794;12.258;2022-12-18T03:45:09;-5.20;79.70
1680;DHT22;838;51.794;12.258;2022-12-18T03:50:45;-5.20;81.70
1680;DHT22;838;51.794;12.258;2022-12-18T03:53:37;-5.20;81.90
1680;DHT22;838;51.794;12.258;2022-12-18T03:56:06;-5.20;81.80
1680;DHT22;838;51.794;12.258;2022-12-18T03:58:34;-5.20;82.20
1680;DHT22;838;51.794;12.258;2022-12-18T04:01:03;-5.20;82.00
1680;DHT22;838;51.794;12.258;2022-12-18T04:03:32;-5.20;80.80
1680;DHT22;838;51.794;12.258;2022-12-18T04:06:00;-5.10;80.60
1680;DHT22;838;51.794;12.258;2022-12-18T04:08:27;-5.10;80.20
1680;DHT22;838;51.794;12.258;2022-12-18T04:10:53;-5.10;78.70
1680;DHT22;838;51.794;12.258;2022-12-18T04:13:24;-5.10;78.10
1680;DHT22;838;51.794;12.258;2022-12-18T04:15:50;-5.10;76.60
1680;DHT22;838;51.794;12.258;2022-12-18T04:18:16;-5.00;75.60
1680;DHT22;838;51.794;12.258;2022-12-18T04:20:42;-5.30;72.90
1680;DHT22;838;51.794;12.258;2022-12-18T04:23:07;-5.40;73.40
1680;DHT22;838;51.794;12.258;2022-12-18T04:25:33;-5.40;73.50
1680;DHT22;838;51.794;12.258;2022-12-18T04:27:59;-5.40;73.70
1680;DHT22;838;51.794;12.258;2022-12-18T04:30:24;-5.40;73.40
1680;DHT22;838;51.794;12.258;2022-12-18T04:32:50;-5.40;72.50
1680;DHT22;838;51.794;12.258;2022-12-18T04:35:16;-5.40;71.70
1680;DHT22;838;51.794;12.258;2022-12-18T04:37:41;-5.50;70.90
1680;DHT22;838;51.794;12.258;2022-12-18T04:40:07;-5.40;71.30
1680;DHT22;838;51.794;12.258;2022-12-18T04:42:33;-5.20;71.00
1680;DHT22;838;51.794;12.258;2022-12-18T04:44:59;-5.00;66.50
1680;DHT22;838;51.794;12.258;2022-12-18T04:47:25;-5.10;60.00
1680;DHT22;838;51.794;12.258;2022-12-18T04:49:50;-5.40;59.70
1680;DHT22;838;51.794;12.258;2022-12-18T04:52:16;-5.40;58.70
1680;DHT22;838;51.794;12.258;2022-12-18T04:54:42;-5.60;58.80
1680;DHT22;838;51.794;12.258;2022-12-18T04:57:08;-5.60;57.30
1680;DHT22;838;51.794;12.258;2022-12-18T04:59:33;-5.60;56.50
1680;DHT22;838;51.794;12.258;2022-12-18T05:01:59;-5.60;55.40
1680;DHT22;838;51.794;12.258;2022-12-18T05:04:25;-5.70;52.90
1680;DHT22;838;51.794;12.258;2022-12-18T05:06:50;-5.90;52.50
1680;DHT22;838;51.794;12.258;2022-12-18T05:09:16;-6.00;52.50
1680;DHT22;838;51.794;12.258;2022-12-18T05:11:42;-6.20;52.90
1680;DHT22;838;51.794;12.258;2022-12-18T05:14:07;-6.30;54.90
1680;DHT22;838;51.794;12.258;2022-12-18T05:16:33;-6.40;54.80
1680;DHT22;838;51.794;12.258;2022-12-18T05:18:59;-6.30;56.30
1680;DHT22;838;51.794;12.258;2022-12-18T05:21:25;-6.10;55.50
1680;DHT22;838;51.794;12.258;2022-12-18T05:23:50;-6.00;53.00
1680;DHT22;838;51.794;12.258;2022-12-18T05:26:17;-5.80;52.00
1680;DHT22;838;51.794;12.258;2022-12-18T05:28:44;-5.90;49.70
1680;DHT22;838;51.794;12.258;2022-12-18T05:31:09;-5.80;50.50
1680;DHT22;838;51.794;12.258;2022-12-18T05:33:35;-5.90;47.20
1680;DHT22;838;51.794;12.258;2022-12-18T05:36:05;-6.00;46.50
1680;DHT22;838;51.794;12.258;2022-12-18T05:38:32;-6.00;44.90
1680;DHT22;838;51.794;12.258;2022-12-18T05:40:58;-6.10;45.10
1680;DHT22;838;51.794;12.258;2022-12-18T05:43:25;-6.00;46.10
1680;DHT22;838;51.794;12.258;2022-12-18T05:45:52;-6.10;45.50
1680;DHT22;838;51.794;12.258;2022-12-18T05:48:18;-5.90;43.80
1680;DHT22;838;51.794;12.258;2022-12-18T05:50:45;-5.90;42.00
1680;DHT22;838;51.794;12.258;2022-12-18T05:53:12;-5.80;39.50
1680;DHT22;838;51.794;12.258;2022-12-18T05:55:40;-5.90;37.60
1680;DHT22;838;51.794;12.258;2022-12-18T05:58:08;-6.00;37.30
1680;DHT22;838;51.794;12.258;2022-12-18T06:00:36;-6.30;39.30
1680;DHT22;838;51.794;12.258;2022-12-18T06:03:05;-6.70;41.60
1680;DHT22;838;51.794;12.258;2022-12-18T06:05:35;-6.80;43.60
1680;DHT22;838;51.794;12.258;2022-12-18T06:08:02;-7.00;45.50
1680;DHT22;838;51.794;12.258;2022-12-18T06:10:28;-7.20;46.50
1680;DHT22;838;51.794;12.258;2022-12-18T06:12:54;-7.30;48.00
1680;DHT22;838;51.794;12.258;2022-12-18T06:15:19;-7.40;49.50
1680;DHT22;838;51.794;12.258;2022-12-18T06:17:45;-7.50;51.30
1680;DHT22;838;51.794;12.258;2022-12-18T06:20:10;-7.50;52.40
1680;DHT22;838;51.794;12.258;2022-12-18T06:22:36;-7.60;52.60
1680;DHT22;838;51.794;12.258;2022-12-18T06:25:02;-7.60;53.60
1680;DHT22;838;51.794;12.258;2022-12-18T06:27:28;-7.60;52.80
1680;DHT22;838;51.794;12.258;2022-12-18T06:29:54;-7.50;52.80
1680;DHT22;838;51.794;12.258;2022-12-18T06:32:20;-7.50;52.20
1680;DHT22;838;51.794;12.258;2022-12-18T06:34:45;-7.60;51.50
1680;DHT22;838;51.794;12.258;2022-12-18T06:37:11;-7.70;51.20
1680;DHT22;838;51.794;12.258;2022-12-18T06:39:37;-7.70;50.80
1680;DHT22;838;51.794;12.258;2022-12-18T06:42:03;-7.50;50.10
1680;DHT22;838;51.794;12.258;2022-12-18T06:44:29;-7.60;49.00
1680;DHT22;838;51.794;12.258;2022-12-18T06:46:55;-7.60;49.60
1680;DHT22;838;51.794;12.258;2022-12-18T06:49:20;-7.60;48.50
1680;DHT22;838;51.794;12.258;2022-12-18T06:51:46;-7.80;47.20
1680;DHT22;838;51.794;12.258;2022-12-18T06:54:12;-7.80;48.80
1680;DHT22;838;51.794;12.258;2022-12-18T06:56:38;-7.90;49.10
1680;DHT22;838;51.794;12.258;2022-12-18T06:59:04;-7.90;49.40
1680;DHT22;838;51.794;12.258;2022-12-18T07:01:29;-7.90;49.30
1680;DHT22;838;51.794;12.258;2022-12-18T07:03:56;-7.80;49.80
1680;DHT22;838;51.794;12.258;2022-12-18T07:06:24;-7.80;49.50
1680;DHT22;838;51.794;12.258;2022-12-18T07:08:51;-7.70;48.30
1680;DHT22;838;51.794;12.258;2022-12-18T07:11:18;-7.70;47.40
1680;DHT22;838;51.794;12.258;2022-12-18T07:13:44;-7.60;47.50
1680;DHT22;838;51.794;12.258;2022-12-18T07:16:16;-7.80;47.50
1680;DHT22;838;51.794;12.258;2022-12-18T07:18:42;-7.80;47.60
1680;DHT22;838;51.794;12.258;2022-12-18T07:21:12;-8.00;48.30
1680;DHT22;838;51.794;12.258;2022-12-18T07:23:38;-8.00;49.70
1680;DHT22;838;51.794;12.258;2022-12-18T07:26:06;-7.90;51.10
1680;DHT22;838;51.794;12.258;2022-12-18T07:28:33;-8.00;53.00
1680;DHT22;838;51.794;12.258;2022-12-18T07:31:03;-7.90;54.00
1680;DHT22;838;51.794;12.258;2022-12-18T07:33:28;-7.70;53.40
1680;DHT22;838;51.794;12.258;2022-12-18T07:35:54;-7.70;54.20
1680;DHT22;838;51.794;12.258;2022-12-18T07:38:21;-7.70;54.00
1680;DHT22;838;51.794;12.258;2022-12-18T07:40:47;-7.60;54.80
1680;DHT22;838;51.794;12.258;2022-12-18T07:43:13;-7.50;54.70
1680;DHT22;838;51.794;12.258;2022-12-18T07:45:38;-7.40;53.70
1680;DHT22;838;51.794;12.258;2022-12-18T07:48:04;-7.10;54.20
1680;DHT22;838;51.794;12.258;2022-12-18T07:50:30;-6.90;52.10
1680;DHT22;838;51.794;12.258;2022-12-18T07:52:56;-6.80;51.00
1680;DHT22;838;51.794;12.258;2022-12-18T07:55:21;-6.80;47.60
1680;DHT22;838;51.794;12.258;2022-12-18T07:57:47;-6.80;45.30
1680;DHT22;838;51.794;12.258;2022-12-18T08:00:13;-6.60;45.10
1680;DHT22;838;51.794;12.258;2022-12-18T08:02:39;-6.80;43.60
1680;DHT22;838;51.794;12.258;2022-12-18T08:05:05;-6.80;44.60
1680;DHT22;838;51.794;12.258;2022-12-18T08:07:31;-6.70;43.80
1680;DHT22;838;51.794;12.258;2022-12-18T08:09:57;-6.60;44.40
1680;DHT22;838;51.794;12.258;2022-12-18T08:12:22;-6.50;43.40
1680;DHT22;838;51.794;12.258;2022-12-18T08:14:48;-6.60;42.90
1680;DHT22;838;51.794;12.258;2022-12-18T08:17:14;-6.50;43.50
1680;DHT22;838;51.794;12.258;2022-12-18T08:19:39;-6.40;44.30
1680;DHT22;838;51.794;12.258;2022-12-18T08:22:05;-6.10;45.30
1680;DHT22;838;51.794;12.258;2022-12-18T08:24:30;-5.90;43.90
1680;DHT22;838;51.794;12.258;2022-12-18T08:26:56;-5.70;44.40
1680;DHT22;838;51.794;12.258;2022-12-18T08:29:22;-5.60;41.80
1680;DHT22;838;51.794;12.258;2022-12-18T08:31:48;-5.50;41.50
1680;DHT22;838;51.794;12.258;2022-12-18T08:34:14;-5.40;40.40
1680;DHT22;838;51.794;12.258;2022-12-18T08:36:40;-5.50;38.70
1680;DHT22;838;51.794;12.258;2022-12-18T08:39:06;-5.50;37.00
1680;DHT22;838;51.794;12.258;2022-12-18T08:41:31;-5.40;38.70
1680;DHT22;838;51.794;12.258;2022-12-18T08:43:57;-5.20;39.00
1680;DHT22;838;51.794;12.258;2022-12-18T08:46:42;-5.00;38.00
1680;DHT22;838;51.794;12.258;2022-12-18T08:49:09;-4.70;36.10
1680;DHT22;838;51.794;12.258;2022-12-18T08:51:35;-4.40;34.20
1680;DHT22;838;51.794;12.258;2022-12-18T08:54:02;-4.10;32.50
1680;DHT22;838;51.794;12.258;2022-12-18T08:56:28;-4.00;29.40
1680;DHT22;838;51.794;12.258;2022-12-18T08:58:55;-3.80;29.20
1680;DHT22;838;51.794;12.258;2022-12-18T09:01:21;-4.20;26.70
1680;DHT22;838;51.794;12.258;2022-12-18T09:03:50;-4.60;27.40
1680;DHT22;838;51.794;12.258;2022-12-18T09:06:17;-4.80;29.80
1680;DHT22;838;51.794;12.258;2022-12-18T09:08:44;-4.90;29.50
1680;DHT22;838;51.794;12.258;2022-12-18T09:11:21;-4.70;31.50
1680;DHT22;838;51.794;12.258;2022-12-18T09:13:48;-4.90;31.00
1680;DHT22;838;51.794;12.258;2022-12-18T09:16:13;-5.20;32.30
1680;DHT22;838;51.794;12.258;2022-12-18T09:18:39;-5.40;35.50
1680;DHT22;838;51.794;12.258;2022-12-18T09:21:17;-5.50;37.00
1680;DHT22;838;51.794;12.258;2022-12-18T09:23:43;-5.50;38.20
1680;DHT22;838;51.794;12.258;2022-12-18T09:26:09;-5.50;39.70
1680;DHT22;838;51.794;12.258;2022-12-18T09:28:35;-5.30;40.30
1680;DHT22;838;51.794;12.258;2022-12-18T09:31:08;-5.30;39.40
1680;DHT22;838;51.794;12.258;2022-12-18T09:33:37;-5.50;40.00
1680;DHT22;838;51.794;12.258;2022-12-18T09:36:07;-5.80;42.50
1680;DHT22;838;51.794;12.258;2022-12-18T09:38:34;-5.80;45.80
1680;DHT22;838;51.794;12.258;2022-12-18T09:41:20;-5.70;48.30
1680;DHT22;838;51.794;12.258;2022-12-18T09:43:51;-5.60;49.10
1680;DHT22;838;51.794;12.258;2022-12-18T09:46:29;-5.60;50.00
1680;DHT22;838;51.794;12.258;2022-12-18T09:49:00;-5.40;49.90
1680;DHT22;838;51.794;12.258;2022-12-18T09:51:36;-5.40;49.70
1680;DHT22;838;51.794;12.258;2022-12-18T09:54:11;-5.10;51.40
1680;DHT22;838;51.794;12.258;2022-12-18T09:56:41;-5.00;49.50
1680;DHT22;838;51.794;12.258;2022-12-18T09:59:32;-4.80;47.20
1680;DHT22;838;51.794;12.258;2022-12-18T10:01:59;-4.70;48.20
1680;DHT22;838;51.794;12.258;2022-12-18T10:04:27;-4.60;47.50
1680;DHT22;838;51.794;12.258;2022-12-18T10:07:06;-4.50;46.70
1680;DHT22;838;51.794;12.258;2022-12-18T10:10:23;-4.40;44.60
1680;DHT22;838;51.794;12.258;2022-12-18T10:12:41;-4.20;44.40
1680;DHT22;838;51.794;12.258;2022-12-18T10:15:23;-4.10;43.60
1680;DHT22;838;51.794;12.258;2022-12-18T10:18:32;-4.00;42.60
1680;DHT22;838;51.794;12.258;2022-12-18T10:21:10;-4.20;42.40
1680;DHT22;838;51.794;12.258;2022-12-18T10:26:31;-4.00;43.50
1680;DHT22;838;51.794;12.258;2022-12-18T10:28:59;-3.90;42.90
1680;DHT22;838;51.794;12.258;2022-12-18T10:31:24;-3.70;42.10
1680;DHT22;838;51.794;12.258;2022-12-18T10:33:51;-3.50;42.40
1680;DHT22;838;51.794;12.258;2022-12-18T10:36:19;-3.50;39.40
1680;DHT22;838;51.794;12.258;2022-12-18T10:38:45;-3.60;39.70
1680;DHT22;838;51.794;12.258;2022-12-18T10:44:15;-3.20;40.30
1680;DHT22;838;51.794;12.258;2022-12-18T10:46:42;-3.00;38.20
1680;DHT22;838;51.794;12.258;2022-12-18T10:49:26;-3.00;37.10
1680;DHT22;838;51.794;12.258;2022-12-18T10:54:54;-3.00;37.10
1680;DHT22;838;51.794;12.258;2022-12-18T10:57:39;-3.00;37.80
1680;DHT22;838;51.794;12.258;2022-12-18T11:00:38;-2.90;37.30
1680;DHT22;838;51.794;12.258;2022-12-18T11:06:13;-2.50;40.60
1680;DHT22;838;51.794;12.258;2022-12-18T11:08:41;-2.40;36.70
1680;DHT22;838;51.794;12.258;2022-12-18T11:11:15;-2.20;35.20
1680;DHT22;838;51.794;12.258;2022-12-18T11:14:01;-2.10;34.20
1680;DHT22;838;51.794;12.258;2022-12-18T11:16:28;-2.00;33.60
1680;DHT22;838;51.794;12.258;2022-12-18T11:19:14;-1.90;33.10
1680;DHT22;838;51.794;12.258;2022-12-18T11:21:43;-2.00;32.10
1680;DHT22;838;51.794;12.258;2022-12-18T11:24:20;-1.90;33.00
1680;DHT22;838;51.794;12.258;2022-12-18T11:26:47;-1.80;33.00
1680;DHT22;838;51.794;12.258;2022-12-18T11:29:20;-1.80;31.90
1680;DHT22;838;51.794;12.258;2022-12-18T11:31:48;-1.70;32.70
1680;DHT22;838;51.794;12.258;2022-12-18T11:34:28;-1.50;32.00
1680;DHT22;838;51.794;12.258;2022-12-18T11:36:58;-1.50;31.70
1680;DHT22;838;51.794;12.258;2022-12-18T11:39:37;-1.30;31.10
1680;DHT22;838;51.794;12.258;2022-12-18T11:42:34;-1.20;31.00
1680;DHT22;838;51.794;12.258;2022-12-18T11:47:49;-0.80;29.40
1680;DHT22;838;51.794;12.258;2022-12-18T11:50:22;-0.90;28.50
1680;DHT22;838;51.794;12.258;2022-12-18T11:52:49;-1.00;28.30
1680;DHT22;838;51.794;12.258;2022-12-18T11:55:25;-1.20;28.80
1680;DHT22;838;51.794;12.258;2022-12-18T12:00:49;-1.10;29.40
1680;DHT22;838;51.794;12.258;2022-12-18T12:09:04;-1.20;28.80
1680;DHT22;838;51.794;12.258;2022-12-18T12:17:22;-1.30;32.00
1680;DHT22;838;51.794;12.258;2022-12-18T12:25:30;-1.40;31.10
1680;DHT22;838;51.794;12.258;2022-12-18T12:31:36;-1.80;32.20
1680;DHT22;838;51.794;12.258;2022-12-18T12:39:30;-1.90;33.90
1680;DHT22;838;51.794;12.258;2022-12-18T12:41:57;-1.90;35.30
1680;DHT22;838;51.794;12.258;2022-12-18T12:44:48;-1.90;35.40
1680;DHT22;838;51.794;12.258;2022-12-18T12:47:19;-1.80;34.90
1680;DHT22;838;51.794;12.258;2022-12-18T12:49:47;-1.70;36.50
1680;DHT22;838;51.794;12.258;2022-12-18T12:52:27;-1.50;34.20
1680;DHT22;838;51.794;12.258;2022-12-18T12:54:55;-1.70;34.30
1680;DHT22;838;51.794;12.258;2022-12-18T12:57:32;-1.70;35.30
1680;DHT22;838;51.794;12.258;2022-12-18T13:00:18;-1.90;33.70
1680;DHT22;838;51.794;12.258;2022-12-18T13:03:11;-1.90;35.80
1680;DHT22;838;51.794;12.258;2022-12-18T13:09:00;-2.20;37.30
1680;DHT22;838;51.794;12.258;2022-12-18T13:11:42;-2.10;39.40
1680;DHT22;838;51.794;12.258;2022-12-18T13:14:38;-2.00;38.20
1680;DHT22;838;51.794;12.258;2022-12-18T13:19:51;-1.80;38.00
1680;DHT22;838;51.794;12.258;2022-12-18T13:22:23;-1.70;36.80
1680;DHT22;838;51.794;12.258;2022-12-18T13:24:50;-1.80;36.30
1680;DHT22;838;51.794;12.258;2022-12-18T13:30:49;-1.90;37.60
1680;DHT22;838;51.794;12.258;2022-12-18T13:38:24;-1.90;36.40
1680;DHT22;838;51.794;12.258;2022-12-18T13:41:01;-2.20;37.00
1680;DHT22;838;51.794;12.258;2022-12-18T13:43:31;-2.20;38.90
1680;DHT22;838;51.794;12.258;2022-12-18T13:48:31;-2.40;39.80
1680;DHT22;838;51.794;12.258;2022-12-18T13:51:06;-2.60;40.70
1680;DHT22;838;51.794;12.258;2022-12-18T13:53:43;-2.70;42.00
1680;DHT22;838;51.794;12.258;2022-12-18T13:56:16;-2.80;43.80
1680;DHT22;838;51.794;12.258;2022-12-18T13:58:41;-3.00;45.50
1680;DHT22;838;51.794;12.258;2022-12-18T14:01:22;-3.10;47.40
1680;DHT22;838;51.794;12.258;2022-12-18T14:03:48;-3.10;48.90
1680;DHT22;838;51.794;12.258;2022-12-18T14:06:14;-2.90;50.00
1680;DHT22;838;51.794;12.258;2022-12-18T14:08:42;-3.10;48.80
1680;DHT22;838;51.794;12.258;2022-12-18T14:11:19;-3.10;49.70
1680;DHT22;838;51.794;12.258;2022-12-18T14:13:46;-3.20;50.70
1680;DHT22;838;51.794;12.258;2022-12-18T14:16:14;-3.30;50.40
1680;DHT22;838;51.794;12.258;2022-12-18T14:21:27;-3.40;51.60
1680;DHT22;838;51.794;12.258;2022-12-18T14:24:17;-3.40;51.90
1680;DHT22;838;51.794;12.258;2022-12-18T14:26:44;-3.50;52.30
1680;DHT22;838;51.794;12.258;2022-12-18T14:29:27;-3.50;52.70
1680;DHT22;838;51.794;12.258;2022-12-18T14:32:13;-3.60;53.00
1680;DHT22;838;51.794;12.258;2022-12-18T14:37:12;-3.60;53.00
1680;DHT22;838;51.794;12.258;2022-12-18T14:39:39;-3.60;53.10
1680;DHT22;838;51.794;12.258;2022-12-18T14:42:05;-3.70;52.60
1680;DHT22;838;51.794;12.258;2022-12-18T14:44:30;-3.80;53.20
1680;DHT22;838;51.794;12.258;2022-12-18T14:46:56;-3.90;53.90
1680;DHT22;838;51.794;12.258;2022-12-18T14:49:33;-4.10;54.60
1680;DHT22;838;51.794;12.258;2022-12-18T14:52:01;-4.20;55.80
1680;DHT22;838;51.794;12.258;2022-12-18T14:54:28;-4.10;56.30
1680;DHT22;838;51.794;12.258;2022-12-18T14:57:04;-4.20;56.20
1680;DHT22;838;51.794;12.258;2022-12-18T14:59:31;-4.20;56.00
1680;DHT22;838;51.794;12.258;2022-12-18T15:02:23;-4.20;56.60
1680;DHT22;838;51.794;12.258;2022-12-18T15:05:00;-4.20;57.30
1680;DHT22;838;51.794;12.258;2022-12-18T15:07:26;-4.20;56.30
1680;DHT22;838;51.794;12.258;2022-12-18T15:10:18;-4.00;55.80
1680;DHT22;838;51.794;12.258;2022-12-18T15:23:22;-4.00;49.20
1680;DHT22;838;51.794;12.258;2022-12-18T15:33:36;-4.30;50.60
1680;DHT22;838;51.794;12.258;2022-12-18T15:36:09;-4.30;52.00
1680;DHT22;838;51.794;12.258;2022-12-18T15:38:35;-4.30;51.30
1680;DHT22;838;51.794;12.258;2022-12-18T15:41:01;-4.10;50.00
1680;DHT22;838;51.794;12.258;2022-12-18T15:43:28;-4.20;50.60
1680;DHT22;838;51.794;12.258;2022-12-18T15:46:06;-4.10;49.20
1680;DHT22;838;51.794;12.258;2022-12-18T15:48:39;-4.20;47.80
1680;DHT22;838;51.794;12.258;2022-12-18T15:51:08;-4.20;46.60
1680;DHT22;838;51.794;12.258;2022-12-18T15:53:38;-4.20;45.80
1680;DHT22;838;51.794;12.258;2022-12-18T15:56:04;-4.30;46.60
1680;DHT22;838;51.794;12.258;2022-12-18T15:58:49;-4.50;46.70
1680;DHT22;838;51.794;12.258;2022-12-18T16:01:15;-4.50;47.20
1680;DHT22;838;51.794;12.258;2022-12-18T16:03:46;-4.50;47.10
1680;DHT22;838;51.794;12.258;2022-12-18T16:06:12;-4.60;45.40
1680;DHT22;838;51.794;12.258;2022-12-18T16:08:38;-4.60;48.60
1680;DHT22;838;51.794;12.258;2022-12-18T16:11:03;-4.50;46.60
1680;DHT22;838;51.794;12.258;2022-12-18T16:13:29;-4.50;46.90
1680;DHT22;838;51.794;12.258;2022-12-18T16:15:55;-4.50;46.90
1680;DHT22;838;51.794;12.258;2022-12-18T16:18:21;-4.50;47.20
1680;DHT22;838;51.794;12.258;2022-12-18T16:20:47;-4.50;48.00
1680;DHT22;838;51.794;12.258;2022-12-18T16:23:12;-4.50;47.80
1680;DHT22;838;51.794;12.258;2022-12-18T16:25:38;-4.50;48.00
1680;DHT22;838;51.794;12.258;2022-12-18T16:28:04;-4.60;48.80
1680;DHT22;838;51.794;12.258;2022-12-18T16:30:30;-4.60;48.80
1680;DHT22;838;51.794;12.258;2022-12-18T16:32:57;-4.70;49.20
1680;DHT22;838;51.794;12.258;2022-12-18T16:35:23;-4.70;48.90
1680;DHT22;838;51.794;12.258;2022-12-18T16:37:49;-4.80;49.00
1680;DHT22;838;51.794;12.258;2022-12-18T16:40:16;-4.90;50.00
1680;DHT22;838;51.794;12.258;2022-12-18T16:42:44;-4.90;50.30
1680;DHT22;838;51.794;12.258;2022-12-18T16:45:13;-5.00;50.30
1680;DHT22;838;51.794;12.258;2022-12-18T16:47:39;-5.00;49.90
1680;DHT22;838;51.794;12.258;2022-12-18T16:50:06;-5.00;50.00
1680;DHT22;838;51.794;12.258;2022-12-18T16:52:33;-5.10;50.80
1680;DHT22;838;51.794;12.258;2022-12-18T16:54:59;-5.10;51.90
1680;DHT22;838;51.794;12.258;2022-12-18T16:57:25;-5.00;52.30
1680;DHT22;838;51.794;12.258;2022-12-18T16:59:51;-5.10;53.60
1680;DHT22;838;51.794;12.258;2022-12-18T17:02:19;-5.10;54.50
1680;DHT22;838;51.794;12.258;2022-12-18T17:04:45;-5.10;55.30
1680;DHT22;838;51.794;12.258;2022-12-18T17:07:11;-5.00;56.00
1680;DHT22;838;51.794;12.258;2022-12-18T17:09:37;-5.10;56.10
1680;DHT22;838;51.794;12.258;2022-12-18T17:12:04;-5.10;56.30
1680;DHT22;838;51.794;12.258;2022-12-18T17:14:30;-5.10;56.90
1680;DHT22;838;51.794;12.258;2022-12-18T17:16:56;-4.90;58.10
1680;DHT22;838;51.794;12.258;2022-12-18T17:19:23;-4.80;57.40
1680;DHT22;838;51.794;12.258;2022-12-18T17:21:49;-4.90;57.10
1680;DHT22;838;51.794;12.258;2022-12-18T17:24:16;-5.10;57.90
1680;DHT22;838;51.794;12.258;2022-12-18T17:26:42;-5.10;58.90
1680;DHT22;838;51.794;12.258;2022-12-18T17:29:13;-5.00;59.70
1680;DHT22;838;51.794;12.258;2022-12-18T17:31:39;-5.00;59.10
1680;DHT22;838;51.794;12.258;2022-12-18T17:34:04;-5.00;59.50
1680;DHT22;838;51.794;12.258;2022-12-18T17:36:33;-4.90;59.30
1680;DHT22;838;51.794;12.258;2022-12-18T17:39:00;-4.90;59.50
1680;DHT22;838;51.794;12.258;2022-12-18T17:41:27;-4.80;58.90
1680;DHT22;838;51.794;12.258;2022-12-18T17:44:01;-4.70;58.10
1680;DHT22;838;51.794;12.258;2022-12-18T17:46:30;-4.60;56.00
1680;DHT22;838;51.794;12.258;2022-12-18T17:48:58;-4.50;54.20
1680;DHT22;838;51.794;12.258;2022-12-18T17:51:24;-4.60;53.60
1680;DHT22;838;51.794;12.258;2022-12-18T17:53:50;-4.40;53.10
1680;DHT22;838;51.794;12.258;2022-12-18T17:56:18;-4.30;50.90
1680;DHT22;838;51.794;12.258;2022-12-18T17:58:44;-4.20;50.10
1680;DHT22;838;51.794;12.258;2022-12-18T18:01:21;-4.40;49.40